Aeroporto :
LOGIN :

Iscrizione | Disclaimer

   EN    FR    IT 

 










Sommario :    VFR   VFR Marginale   IFR   IFR Intensivo   IFR Molto Intensivo
Visibilità : 
Base nubi : 
>= 8 km
>= 3000ft
5 / 8 km
1000 / 3000 ft
1500m / 5 km
500 / 1000 ft
800 / 1500m
200 / 500 ft
< 800m
< 200 ft
Simboli :   Temporali  Nebbia  Neve Forte  Precipitazioni Forti  Vento > 20 kt
SIGMETs :   Varie  Temporali  Ghiacco  Turbolenza  Onda orograficha  Ceneri Vulcaniche






- Altitudine del aeroporto : 341 ft


EPMO - Modlin

ULTIMO METAR :
  • 251300Z 24012KT 9999 SCT041 11/07 Q0996

METARs OBSOLETI :
  • 251230Z 25016KT 9999 BKN029 11/06 Q0996
  • 251200Z 24014KT 9999 SCT021 BKN025 11/07 Q0996
  • 251130Z 24015KT 9999 SCT019 11/08 Q0996
  • 251100Z 24015KT 9999 BKN019 10/08 Q0997
  • 251030Z 25014KT 9999 FEW014 BKN020 09/08 Q0997
  • 251000Z 24013KT 9999 BKN013 09/09 Q0997

TAF TAF EPMO
Valido dal 25 a 12 ore il 26 a 12 ore UTC


251130Z 2512/2612 23011KT 9999 SCT040
TEMPO 2512/2523 22015G27KT 4500 SHRA SCT012 BKN020CB
PROB40 2602/2607 VRB02KT 3000 -RA BR BKN004



MetMap, La meteo Aeronautica in un colpo d'occhio ! - Copyright ORBIFLY Dicembre 2007 - Disclaimer

ORBIFLY MET'MAP TEAM :

Programmazione e sviluppo : Alexandra Zaïnal
Concezione : Baudouin d'Aumeries
Aiuto per la programmazione : Marc-Olivier Méhu
Supporto tecnico e logistico : Manuel Goepfert
Aiuto per la traduzione : Arnaldo La Scala

Contatto : metmap@orbifly.com




FONTI E CREDITI :

   NOAA